createdAt,value
2023-03-05T00:01:33.587Z,25.77
2023-03-05T00:04:03.457Z,23.25
2023-03-05T00:06:32.816Z,19.75
2023-03-05T00:09:00.977Z,19.38
2023-03-05T00:11:31.713Z,23.20
2023-03-05T00:14:03.555Z,21.35
2023-03-05T00:16:31.401Z,21.58
2023-03-05T00:19:01.412Z,20.73
2023-03-05T00:21:33.172Z,24.20
2023-03-05T00:24:03.876Z,24.33
2023-03-05T00:26:34.599Z,24.60
2023-03-05T00:29:02.612Z,25.77
2023-03-05T00:31:34.101Z,26.55
2023-03-05T00:34:06.987Z,25.85
2023-03-05T00:36:34.783Z,24.10
2023-03-05T00:39:02.421Z,21.80
2023-03-05T00:41:29.680Z,22.83
2023-03-05T00:43:57.381Z,20.08
2023-03-05T00:46:27.554Z,24.98
2023-03-05T00:48:56.673Z,22.08
2023-03-05T00:51:24.978Z,28.95
2023-03-05T00:53:53.130Z,29.38
2023-03-05T00:56:21.022Z,30.25
2023-03-05T00:58:48.775Z,26.85
2023-03-05T01:01:16.451Z,28.88
2023-03-05T01:03:44.023Z,26.45
2023-03-05T01:06:15.136Z,26.27
2023-03-05T01:08:44.052Z,27.25
2023-03-05T01:11:11.891Z,20.65
2023-03-05T01:13:39.653Z,21.65
2023-03-05T01:16:07.594Z,19.93
2023-03-05T01:18:35.423Z,21.25
2023-03-05T01:21:04.276Z,21.40
2023-03-05T01:23:34.563Z,18.70
2023-03-05T01:26:01.939Z,23.10
2023-03-05T01:28:29.736Z,20.70
2023-03-05T01:30:57.011Z,22.67
2023-03-05T01:33:24.538Z,20.13
2023-03-05T01:35:52.429Z,14.38
2023-03-05T01:38:19.998Z,15.38
2023-03-05T01:40:47.734Z,15.70
2023-03-05T01:43:30.819Z,15.40
2023-03-05T01:46:16.960Z,17.52
2023-03-05T01:48:51.203Z,14.35
2023-03-05T01:51:22.839Z,13.38
2023-03-05T01:53:50.508Z,13.55
2023-03-05T01:56:18.336Z,11.68
2023-03-05T01:58:46.395Z,11.07
2023-03-05T02:01:13.884Z,13.20
2023-03-05T02:03:43.095Z,10.00
2023-03-05T02:06:10.845Z,10.35
2023-03-05T02:08:38.540Z,9.10
2023-03-05T02:11:06.271Z,9.57
2023-03-05T02:13:38.721Z,12.63
2023-03-05T02:16:07.544Z,11.00
2023-03-05T02:18:35.181Z,15.63
2023-03-05T02:21:10.415Z,12.68
2023-03-05T02:23:39.412Z,10.82
2023-03-05T02:26:10.616Z,11.95
2023-03-05T02:28:58.610Z,8.80
2023-03-05T02:31:27.381Z,12.23
2023-03-05T02:33:58.464Z,9.98
2023-03-05T02:36:26.235Z,11.35
2023-03-05T02:38:57.097Z,9.07
2023-03-05T02:41:25.142Z,7.57
2023-03-05T02:43:52.768Z,9.17
2023-03-05T02:46:20.309Z,11.00
2023-03-05T02:48:47.901Z,11.93
2023-03-05T02:51:15.515Z,11.38
2023-03-05T02:53:43.175Z,9.63
2023-03-05T02:56:10.672Z,11.60
2023-03-05T02:58:38.261Z,12.13
2023-03-05T03:01:05.759Z,9.73
2023-03-05T03:03:33.355Z,11.30
2023-03-05T03:06:00.708Z,11.63
2023-03-05T03:08:28.761Z,11.77
2023-03-05T03:10:56.686Z,11.23
2023-03-05T03:13:25.394Z,12.30
2023-03-05T03:16:07.215Z,18.50
2023-03-05T03:18:35.155Z,25.52
2023-03-05T03:21:03.039Z,32.08
2023-03-05T03:23:31.891Z,31.87
2023-03-05T03:25:59.456Z,26.80
2023-03-05T03:28:26.974Z,30.70
2023-03-05T03:30:54.267Z,34.23
2023-03-05T03:33:22.444Z,35.08
2023-03-05T03:35:49.782Z,37.33
2023-03-05T03:38:17.372Z,35.67
2023-03-05T03:40:44.646Z,34.80
2023-03-05T03:43:14.279Z,37.83
2023-03-05T03:45:43.781Z,34.65
2023-03-05T03:48:11.658Z,39.40
2023-03-05T03:50:43.280Z,36.05
2023-03-05T03:53:14.514Z,38.30
2023-03-05T03:55:46.695Z,38.10
2023-03-05T03:58:14.346Z,49.87
2023-03-05T04:00:41.950Z,41.90
2023-03-05T04:03:09.771Z,39.77
2023-03-05T04:05:37.088Z,35.75
2023-03-05T04:08:05.888Z,35.30
2023-03-05T04:10:33.102Z,28.10
2023-03-05T04:13:00.681Z,32.03
2023-03-05T04:15:28.020Z,28.25
2023-03-05T04:17:55.633Z,19.70
2023-03-05T04:20:22.920Z,23.40
2023-03-05T04:22:50.898Z,27.73
2023-03-05T04:25:18.150Z,30.77
2023-03-05T04:27:45.686Z,35.10
2023-03-05T04:30:17.225Z,23.77
2023-03-05T04:32:44.815Z,24.27
2023-03-05T04:35:12.216Z,18.80
2023-03-05T04:37:39.756Z,16.63
2023-03-05T04:40:08.474Z,17.45
2023-03-05T04:42:36.104Z,17.10
2023-03-05T04:45:04.320Z,15.57
2023-03-05T04:47:31.885Z,16.57
2023-03-05T04:49:59.151Z,14.43
2023-03-05T04:52:26.882Z,13.98
2023-03-05T04:54:54.626Z,13.63
2023-03-05T04:57:24.016Z,13.48
2023-03-05T04:59:51.373Z,16.13
2023-03-05T05:02:18.919Z,16.17
2023-03-05T05:04:46.227Z,15.52
2023-03-05T05:07:13.729Z,19.80
2023-03-05T05:09:41.662Z,21.30
2023-03-05T05:12:10.598Z,17.73
2023-03-05T05:14:38.678Z,16.80
2023-03-05T05:17:06.417Z,17.67
2023-03-05T05:19:35.482Z,16.40
2023-03-05T05:22:03.197Z,14.77
2023-03-05T05:24:30.531Z,13.07
2023-03-05T05:26:58.077Z,12.75
2023-03-05T05:29:26.190Z,13.10
2023-03-05T05:31:54.315Z,14.02
2023-03-05T05:34:21.559Z,14.70
2023-03-05T05:36:49.265Z,12.70
2023-03-05T05:39:17.183Z,13.07
2023-03-05T05:41:45.779Z,16.43
2023-03-05T05:44:13.031Z,19.60
2023-03-05T05:46:40.670Z,20.33
2023-03-05T05:49:07.978Z,21.23
2023-03-05T05:51:35.611Z,17.80
2023-03-05T05:54:02.969Z,14.65
2023-03-05T05:56:30.500Z,11.70
2023-03-05T05:58:57.812Z,14.27
2023-03-05T06:01:32.061Z,13.07
2023-03-05T06:04:00.285Z,15.13
2023-03-05T06:06:29.271Z,16.88
2023-03-05T06:08:57.372Z,14.20
2023-03-05T06:11:24.886Z,14.00
2023-03-05T06:13:52.391Z,13.17
2023-03-05T06:16:24.672Z,11.63
2023-03-05T06:18:52.919Z,14.57
2023-03-05T06:21:22.653Z,23.27
2023-03-05T06:23:51.327Z,17.63
2023-03-05T06:26:22.293Z,18.93
2023-03-05T06:28:49.581Z,16.75
2023-03-05T06:31:27.282Z,14.00
2023-03-05T06:34:03.575Z,14.70
2023-03-05T06:36:31.699Z,17.23
2023-03-05T06:38:59.802Z,11.17
2023-03-05T06:41:31.570Z,19.45
2023-03-05T06:44:04.951Z,14.50
2023-03-05T06:46:37.511Z,14.77
2023-03-05T06:49:05.348Z,17.48
2023-03-05T06:51:39.513Z,16.40
2023-03-05T06:54:12.054Z,16.50
2023-03-05T06:56:43.236Z,17.63
2023-03-05T06:59:14.657Z,14.67
2023-03-05T07:01:43.525Z,16.03
2023-03-05T07:04:12.931Z,18.27
2023-03-05T07:06:44.947Z,24.20
2023-03-05T07:09:16.886Z,25.30
2023-03-05T07:11:44.609Z,21.33
2023-03-05T07:14:12.050Z,21.52
2023-03-05T07:16:39.711Z,24.65
2023-03-05T07:19:08.068Z,20.98
2023-03-05T07:21:39.105Z,21.87
2023-03-05T07:24:08.161Z,23.30
2023-03-05T07:26:36.344Z,25.43
2023-03-05T07:29:04.277Z,32.83
2023-03-05T07:31:32.245Z,39.53
2023-03-05T07:34:02.180Z,41.17
2023-03-05T07:36:30.261Z,37.07
2023-03-05T07:38:58.059Z,42.63
2023-03-05T07:41:25.424Z,38.70
2023-03-05T07:43:55.133Z,31.43
2023-03-05T07:46:27.672Z,28.80
2023-03-05T07:48:56.046Z,29.10
2023-03-05T07:51:25.973Z,30.40
2023-03-05T07:53:56.472Z,29.98
2023-03-05T07:56:35.539Z,25.20
2023-03-05T07:59:08.901Z,30.20
2023-03-05T08:01:37.458Z,32.42
2023-03-05T08:04:06.999Z,43.78
2023-03-05T08:06:34.398Z,37.92
2023-03-05T08:09:01.981Z,31.67
2023-03-05T08:11:29.296Z,39.53
2023-03-05T08:13:59.392Z,48.15
2023-03-05T08:16:27.730Z,40.10
2023-03-05T08:18:58.252Z,40.75
2023-03-05T08:21:33.913Z,36.22
2023-03-05T08:24:08.670Z,35.95
2023-03-05T08:26:38.800Z,32.60
2023-03-05T08:29:08.940Z,34.88
2023-03-05T08:31:38.259Z,27.48
2023-03-05T08:34:07.105Z,33.20
2023-03-05T08:36:34.557Z,28.70
2023-03-05T08:39:02.359Z,26.63
2023-03-05T08:41:29.892Z,32.33
2023-03-05T08:43:57.537Z,30.13
2023-03-05T08:46:24.908Z,28.15
2023-03-05T08:48:52.772Z,26.23
2023-03-05T08:51:27.586Z,24.92
2023-03-05T08:53:59.507Z,28.23
2023-03-05T08:56:28.618Z,27.75
2023-03-05T08:58:56.188Z,27.67
2023-03-05T09:01:24.155Z,29.20
2023-03-05T09:03:51.954Z,25.92
2023-03-05T09:06:19.625Z,30.83
2023-03-05T09:08:47.323Z,30.30
2023-03-05T09:11:14.998Z,37.35
2023-03-05T09:13:43.011Z,29.63
2023-03-05T09:16:16.711Z,28.85
2023-03-05T09:18:44.934Z,35.47
2023-03-05T09:21:18.376Z,37.33
2023-03-05T09:23:49.630Z,42.53
2023-03-05T09:26:21.705Z,29.02
2023-03-05T09:28:49.611Z,37.03
2023-03-05T09:31:17.604Z,35.45
2023-03-05T09:33:45.502Z,37.42
2023-03-05T09:36:25.306Z,47.75
2023-03-05T09:38:54.351Z,36.53
2023-03-05T09:41:53.648Z,34.53
2023-03-05T09:44:52.089Z,29.45
2023-03-05T09:47:46.828Z,33.17
2023-03-05T09:50:33.261Z,34.65
2023-03-05T09:53:18.059Z,35.80
2023-03-05T09:55:55.585Z,29.05
2023-03-05T09:58:43.540Z,27.73
2023-03-05T10:01:24.316Z,29.23
2023-03-05T10:03:59.907Z,22.02
2023-03-05T10:06:41.945Z,31.17
2023-03-05T10:09:12.160Z,27.63
2023-03-05T10:12:03.282Z,30.42
2023-03-05T10:14:35.261Z,29.83
2023-03-05T10:17:23.892Z,23.70
2023-03-05T10:20:15.531Z,24.30
2023-03-05T10:23:04.702Z,22.10
2023-03-05T10:25:53.603Z,24.88
2023-03-05T10:28:57.492Z,28.63
2023-03-05T10:31:30.965Z,23.40
2023-03-05T10:34:28.115Z,22.25
2023-03-05T10:37:21.426Z,20.88
2023-03-05T10:40:32.727Z,18.93
2023-03-05T10:43:36.828Z,19.00
2023-03-05T10:46:05.496Z,21.83
2023-03-05T10:48:59.851Z,17.67
2023-03-05T10:51:53.769Z,16.45
2023-03-05T10:54:41.944Z,15.87
2023-03-05T10:57:25.709Z,17.35
2023-03-05T11:00:01.225Z,15.75
2023-03-05T11:02:28.908Z,19.60
2023-03-05T11:04:56.370Z,20.48
2023-03-05T11:07:24.079Z,18.70
2023-03-05T11:10:17.532Z,15.47
2023-03-05T11:12:45.935Z,18.77
2023-03-05T11:15:13.205Z,14.60
2023-03-05T11:18:04.094Z,15.33
2023-03-05T11:20:36.641Z,14.25
2023-03-05T11:23:15.793Z,14.13
2023-03-05T11:25:55.877Z,16.20
2023-03-05T11:28:34.249Z,15.32
2023-03-05T11:31:15.906Z,11.52
2023-03-05T11:34:29.098Z,12.38
2023-03-05T11:36:57.060Z,14.30
2023-03-05T11:39:30.477Z,16.13
2023-03-05T11:42:15.979Z,14.82
2023-03-05T11:44:56.034Z,12.95
2023-03-05T11:47:32.400Z,18.00
2023-03-05T11:50:19.118Z,20.92
2023-03-05T11:52:54.727Z,16.90
2023-03-05T11:55:28.811Z,11.75
2023-03-05T11:58:28.333Z,12.88
2023-03-05T12:00:57.248Z,11.55
2023-03-05T12:03:45.342Z,10.55
2023-03-05T12:06:55.789Z,10.00
2023-03-05T12:09:47.912Z,12.18
2023-03-05T12:12:53.007Z,12.20
2023-03-05T12:15:35.106Z,11.93
2023-03-05T12:18:43.884Z,12.25
2023-03-05T12:21:34.767Z,9.95
2023-03-05T12:24:24.331Z,15.02
2023-03-05T12:27:02.325Z,12.82
2023-03-05T12:29:45.428Z,10.48
2023-03-05T12:32:33.052Z,8.90
2023-03-05T12:35:04.464Z,9.15
2023-03-05T12:37:31.735Z,7.38
2023-03-05T12:40:23.241Z,7.50
2023-03-05T12:42:59.690Z,8.25
2023-03-05T12:45:38.193Z,10.35
2023-03-05T12:48:10.847Z,7.03
2023-03-05T12:50:38.545Z,8.43
2023-03-05T12:53:21.108Z,4.90
2023-03-05T12:56:22.298Z,5.47
2023-03-05T12:58:58.795Z,7.47
2023-03-05T13:01:36.490Z,6.18
2023-03-05T13:04:28.410Z,6.85
2023-03-05T13:07:07.370Z,8.13
2023-03-05T13:09:36.413Z,9.57
2023-03-05T13:12:13.221Z,6.72
2023-03-05T13:15:15.701Z,4.65
2023-03-05T13:18:03.603Z,8.10
2023-03-05T13:20:42.792Z,6.10
2023-03-05T13:23:27.454Z,5.10
2023-03-05T13:26:20.016Z,5.43
2023-03-05T13:29:11.659Z,7.35
2023-03-05T13:31:56.462Z,11.57
2023-03-05T13:34:44.682Z,11.38
2023-03-05T13:37:25.112Z,7.63
2023-03-05T13:39:59.752Z,8.95
2023-03-05T13:42:34.682Z,9.43
2023-03-05T13:45:28.912Z,9.00
2023-03-05T13:48:03.066Z,8.80
2023-03-05T13:50:40.503Z,8.13
2023-03-05T13:53:31.395Z,10.20
2023-03-05T13:56:03.780Z,8.70
2023-03-05T13:58:52.756Z,9.27
2023-03-05T14:01:40.760Z,11.95
2023-03-05T14:04:15.635Z,13.27
2023-03-05T14:06:58.356Z,10.48
2023-03-05T14:09:32.062Z,10.65
2023-03-05T14:12:38.055Z,12.00
2023-03-05T14:15:29.509Z,10.02
2023-03-05T14:18:12.003Z,8.20
2023-03-05T14:20:59.109Z,8.90
2023-03-05T14:23:38.935Z,11.73
2023-03-05T14:26:34.476Z,9.82
2023-03-05T14:29:07.086Z,14.68
2023-03-05T14:31:56.470Z,14.40
2023-03-05T14:34:31.886Z,10.38
2023-03-05T14:37:17.526Z,14.07
2023-03-05T14:39:55.044Z,13.35
2023-03-05T14:42:49.915Z,12.75
2023-03-05T14:45:22.377Z,8.90
2023-03-05T14:47:56.132Z,10.52
2023-03-05T14:50:32.231Z,11.38
2023-03-05T14:53:06.844Z,12.30
2023-03-05T14:55:38.389Z,14.70
2023-03-05T14:58:15.429Z,11.10
2023-03-05T15:00:44.474Z,7.80
2023-03-05T15:03:17.590Z,8.23
2023-03-05T15:05:51.138Z,10.27
2023-03-05T15:08:30.481Z,9.25
2023-03-05T15:11:00.125Z,7.70
2023-03-05T15:13:28.074Z,9.05
2023-03-05T15:15:56.073Z,10.07
2023-03-05T15:18:23.917Z,11.75
2023-03-05T15:20:54.967Z,8.13
2023-03-05T15:23:22.312Z,11.15
2023-03-05T15:25:50.966Z,11.70
2023-03-05T15:28:18.819Z,12.15
2023-03-05T15:30:48.093Z,11.30
2023-03-05T15:33:17.863Z,13.07
2023-03-05T15:35:46.281Z,13.02
2023-03-05T15:38:13.700Z,10.52
2023-03-05T15:40:41.586Z,9.57
2023-03-05T15:43:09.781Z,8.48
2023-03-05T15:45:37.653Z,10.23
2023-03-05T15:48:05.183Z,10.77
2023-03-05T15:50:32.996Z,10.88
2023-03-05T15:53:00.380Z,10.10
2023-03-05T15:55:28.002Z,9.20
2023-03-05T15:57:55.518Z,9.43
2023-03-05T16:00:31.119Z,9.00
2023-03-05T16:02:58.706Z,14.65
2023-03-05T16:05:26.576Z,13.07
2023-03-05T16:07:54.962Z,15.43
2023-03-05T16:10:29.513Z,16.45
2023-03-05T16:13:13.610Z,12.40
2023-03-05T16:15:43.307Z,12.98
2023-03-05T16:18:16.758Z,11.73
2023-03-05T16:20:45.593Z,15.57
2023-03-05T16:23:12.877Z,14.45
2023-03-05T16:25:40.512Z,12.38
2023-03-05T16:28:07.830Z,13.80
2023-03-05T16:30:35.427Z,14.32
2023-03-05T16:33:02.664Z,12.35
2023-03-05T16:35:30.918Z,13.90
2023-03-05T16:37:58.735Z,15.45
2023-03-05T16:40:34.259Z,14.70
2023-03-05T16:43:11.975Z,16.17
2023-03-05T16:45:39.564Z,14.73
2023-03-05T16:48:07.111Z,15.40
2023-03-05T16:50:34.713Z,21.40
2023-03-05T16:53:02.005Z,19.92
2023-03-05T16:55:29.664Z,19.58
2023-03-05T16:57:56.976Z,18.27
2023-03-05T17:00:24.907Z,23.02
2023-03-05T17:02:52.261Z,21.00
2023-03-05T17:05:19.981Z,17.95
2023-03-05T17:07:47.468Z,15.98
2023-03-05T17:10:15.686Z,17.17
2023-03-05T17:12:43.791Z,19.60
2023-03-05T17:15:11.565Z,20.63
2023-03-05T17:17:39.632Z,20.08
2023-03-05T17:20:08.606Z,17.13
2023-03-05T17:22:35.983Z,15.60
2023-03-05T17:25:03.698Z,19.52
2023-03-05T17:27:31.072Z,19.52
2023-03-05T17:29:58.846Z,20.95
2023-03-05T17:32:26.400Z,22.23
2023-03-05T17:34:55.828Z,24.17
2023-03-05T17:37:23.879Z,23.77
2023-03-05T17:39:51.518Z,24.70
2023-03-05T17:42:21.631Z,25.83
2023-03-05T17:47:23.351Z,27.05
2023-03-05T17:49:51.427Z,27.65
2023-03-05T17:52:21.086Z,25.67
2023-03-05T17:54:50.526Z,20.25
2023-03-05T17:57:17.865Z,21.92
2023-03-05T17:59:45.990Z,21.58
2023-03-05T18:02:13.420Z,21.43
2023-03-05T18:04:41.378Z,21.75
2023-03-05T18:07:08.654Z,24.35
2023-03-05T18:09:36.557Z,23.05
2023-03-05T18:12:04.090Z,29.27
2023-03-05T18:14:31.762Z,33.10
2023-03-05T18:17:00.349Z,26.63
2023-03-05T18:19:27.982Z,24.45
2023-03-05T18:21:55.335Z,25.63
2023-03-05T18:24:23.005Z,24.60
2023-03-05T18:26:50.345Z,21.53
2023-03-05T18:29:18.850Z,26.43
2023-03-05T18:31:46.333Z,28.33
2023-03-05T18:34:13.978Z,32.37
2023-03-05T18:36:41.463Z,31.20
2023-03-05T18:39:12.167Z,28.93
2023-03-05T18:41:42.406Z,26.33
2023-03-05T18:44:10.191Z,23.13
2023-03-05T18:46:37.622Z,22.53
2023-03-05T18:49:05.153Z,25.27
2023-03-05T18:51:33.859Z,27.25
2023-03-05T18:54:02.463Z,28.10
2023-03-05T18:56:30.196Z,26.55
2023-03-05T18:58:58.934Z,23.30
2023-03-05T19:01:26.800Z,22.13
2023-03-05T19:03:54.810Z,21.67
2023-03-05T19:06:22.118Z,20.87
2023-03-05T19:08:56.995Z,25.20
2023-03-05T19:11:25.274Z,22.52
2023-03-05T19:13:53.011Z,21.83
2023-03-05T19:16:24.733Z,28.75
2023-03-05T19:19:13.812Z,31.23
2023-03-05T19:22:04.133Z,32.05
2023-03-05T19:24:32.605Z,31.63
2023-03-05T19:27:01.512Z,28.97
2023-03-05T19:29:33.151Z,35.60
2023-03-05T19:32:00.672Z,41.53
2023-03-05T19:34:28.365Z,38.83
2023-03-05T19:36:55.997Z,42.38
2023-03-05T19:39:23.714Z,39.67
2023-03-05T19:41:51.660Z,36.30
2023-03-05T19:44:19.463Z,29.40
2023-03-05T19:46:48.633Z,31.20
2023-03-05T19:49:18.365Z,30.55
2023-03-05T19:51:46.613Z,30.40
2023-03-05T19:54:17.182Z,28.27
2023-03-05T19:56:46.556Z,32.47
2023-03-05T19:59:21.148Z,32.60
2023-03-05T20:01:50.040Z,35.43
2023-03-05T20:04:21.960Z,43.42
2023-03-05T20:06:49.536Z,45.38
2023-03-05T20:09:17.750Z,41.35
2023-03-05T20:11:45.318Z,33.55
2023-03-05T20:14:14.803Z,28.02
2023-03-05T20:16:43.460Z,28.23
2023-03-05T20:19:18.092Z,28.40
2023-03-05T20:21:45.914Z,25.10
2023-03-05T20:24:19.072Z,24.83
2023-03-05T20:26:47.528Z,30.52
2023-03-05T20:29:18.128Z,27.85
2023-03-05T20:31:47.430Z,28.50
2023-03-05T20:34:18.781Z,28.63
2023-03-05T20:36:46.740Z,37.70
2023-03-05T20:39:14.420Z,27.90
2023-03-05T20:41:42.082Z,35.27
2023-03-05T20:44:11.492Z,32.63
2023-03-05T20:46:49.692Z,30.92
2023-03-05T20:49:18.175Z,27.25
2023-03-05T20:51:50.350Z,26.95
2023-03-05T20:54:18.050Z,32.75
2023-03-05T20:56:45.418Z,42.63
2023-03-05T20:59:13.307Z,48.03
2023-03-05T21:01:41.152Z,40.53
2023-03-05T21:04:09.392Z,49.10
2023-03-05T21:06:37.152Z,41.90
2023-03-05T21:09:05.608Z,42.15
2023-03-05T21:11:35.573Z,36.10
2023-03-05T21:14:03.410Z,52.55
2023-03-05T21:16:30.882Z,64.45
2023-03-05T21:18:58.536Z,54.30
2023-03-05T21:21:25.942Z,46.80
2023-03-05T21:23:53.722Z,49.47
2023-03-05T21:26:21.394Z,41.63
2023-03-05T21:28:49.222Z,40.08
2023-03-05T21:31:21.286Z,38.10
2023-03-05T21:33:49.890Z,43.90
2023-03-05T21:36:18.944Z,43.57
2023-03-05T21:38:49.089Z,49.38
2023-03-05T21:41:18.314Z,41.37
2023-03-05T21:43:46.326Z,36.03
2023-03-05T21:46:14.784Z,38.30
2023-03-05T21:48:42.376Z,38.28
2023-03-05T21:51:11.550Z,43.22
2023-03-05T21:53:39.338Z,36.55
2023-03-05T21:56:17.938Z,32.17
2023-03-05T21:58:45.846Z,46.75
2023-03-05T22:01:16.338Z,37.85
2023-03-05T22:03:44.082Z,38.45
2023-03-05T22:06:14.731Z,44.37
2023-03-05T22:08:42.651Z,44.53
2023-03-05T22:11:13.392Z,41.15
2023-03-05T22:13:41.917Z,37.90
2023-03-05T22:16:10.583Z,36.42
2023-03-05T22:18:38.418Z,45.60
2023-03-05T22:21:14.585Z,45.53
2023-03-05T22:23:42.185Z,58.45
2023-03-05T22:26:09.527Z,52.72
2023-03-05T22:28:39.087Z,62.40
2023-03-05T22:31:06.797Z,49.05
2023-03-05T22:33:34.730Z,49.33
2023-03-05T22:36:10.024Z,48.00
2023-03-05T22:38:37.721Z,45.38
2023-03-05T22:41:11.730Z,46.42
2023-03-05T22:43:40.359Z,36.10
2023-03-05T22:46:21.146Z,30.83
2023-03-05T22:48:49.132Z,28.30
2023-03-05T22:51:18.468Z,24.30
2023-03-05T22:53:46.888Z,27.75
2023-03-05T22:56:18.401Z,26.27
2023-03-05T22:58:45.982Z,29.35
2023-03-05T23:01:25.538Z,29.85
2023-03-05T23:03:58.726Z,30.00
2023-03-05T23:06:26.142Z,34.88
2023-03-05T23:08:53.756Z,31.77
2023-03-05T23:11:21.326Z,31.92
2023-03-05T23:13:48.828Z,35.28
2023-03-05T23:16:16.174Z,29.73
2023-03-05T23:18:43.785Z,29.00
2023-03-05T23:21:11.129Z,30.88
2023-03-05T23:23:38.734Z,31.88
2023-03-05T23:26:06.146Z,29.17
2023-03-05T23:28:33.854Z,35.60
2023-03-05T23:31:02.338Z,32.33
2023-03-05T23:33:30.173Z,32.20
2023-03-05T23:36:00.707Z,31.42
2023-03-05T23:38:30.549Z,31.73
2023-03-05T23:41:01.249Z,32.67
2023-03-05T23:43:29.924Z,38.35
2023-03-05T23:45:57.481Z,35.97
2023-03-05T23:48:27.223Z,38.80
2023-03-05T23:50:55.588Z,41.10
2023-03-05T23:53:31.203Z,38.43
2023-03-05T23:55:58.674Z,40.07
2023-03-05T23:58:26.372Z,37.78
